sensor_id;sensor_type;location;lat;lon;timestamp;P1;durP1;ratioP1;P2;durP2;ratioP2
55031;SDS011;40928;51.076;7.950;2023-08-20T00:01:11;6.85;;;3.33;;
55031;SDS011;40928;51.076;7.950;2023-08-20T00:03:39;6.95;;;2.55;;
55031;SDS011;40928;51.076;7.950;2023-08-20T00:06:06;5.38;;;3.15;;
55031;SDS011;40928;51.076;7.950;2023-08-20T00:08:32;6.28;;;3.15;;
55031;SDS011;40928;51.076;7.950;2023-08-20T00:10:57;10.32;;;3.13;;
55031;SDS011;40928;51.076;7.950;2023-08-20T00:13:23;4.03;;;3.10;;
55031;SDS011;40928;51.076;7.950;2023-08-20T00:15:48;3.65;;;2.85;;
55031;SDS011;40928;51.076;7.950;2023-08-20T00:18:14;6.72;;;2.88;;
55031;SDS011;40928;51.076;7.950;2023-08-20T00:20:40;4.90;;;3.17;;
55031;SDS011;40928;51.076;7.950;2023-08-20T00:23:06;7.25;;;3.05;;
55031;SDS011;40928;51.076;7.950;2023-08-20T00:25:32;6.18;;;3.00;;
55031;SDS011;40928;51.076;7.950;2023-08-20T00:27:57;5.50;;;2.88;;
55031;SDS011;40928;51.076;7.950;2023-08-20T00:30:23;8.27;;;2.67;;
55031;SDS011;40928;51.076;7.950;2023-08-20T00:32:48;7.15;;;3.00;;
55031;SDS011;40928;51.076;7.950;2023-08-20T00:35:14;6.72;;;3.05;;
55031;SDS011;40928;51.076;7.950;2023-08-20T00:37:39;3.90;;;3.00;;
55031;SDS011;40928;51.076;7.950;2023-08-20T00:40:05;4.82;;;2.97;;
55031;SDS011;40928;51.076;7.950;2023-08-20T00:42:31;5.72;;;3.90;;
55031;SDS011;40928;51.076;7.950;2023-08-20T00:44:57;6.68;;;2.70;;
55031;SDS011;40928;51.076;7.950;2023-08-20T00:47:22;4.85;;;2.75;;
55031;SDS011;40928;51.076;7.950;2023-08-20T00:49:48;6.82;;;3.97;;
55031;SDS011;40928;51.076;7.950;2023-08-20T00:52:15;6.57;;;3.10;;
55031;SDS011;40928;51.076;7.950;2023-08-20T00:54:42;6.22;;;2.88;;
55031;SDS011;40928;51.076;7.950;2023-08-20T00:57:09;3.63;;;2.70;;
55031;SDS011;40928;51.076;7.950;2023-08-20T00:59:35;6.88;;;3.10;;
55031;SDS011;40928;51.076;7.950;2023-08-20T01:02:02;7.28;;;3.10;;
55031;SDS011;40928;51.076;7.950;2023-08-20T01:04:28;5.50;;;2.60;;
55031;SDS011;40928;51.076;7.950;2023-08-20T01:07:14;8.23;;;3.10;;
55031;SDS011;40928;51.076;7.950;2023-08-20T01:12:39;5.10;;;2.72;;
55031;SDS011;40928;51.076;7.950;2023-08-20T01:15:06;8.88;;;3.30;;
55031;SDS011;40928;51.076;7.950;2023-08-20T01:17:38;4.55;;;3.42;;
55031;SDS011;40928;51.076;7.950;2023-08-20T01:20:04;8.23;;;3.40;;
55031;SDS011;40928;51.076;7.950;2023-08-20T01:30:43;7.85;;;2.88;;
55031;SDS011;40928;51.076;7.950;2023-08-20T01:33:11;7.88;;;3.55;;
55031;SDS011;40928;51.076;7.950;2023-08-20T01:35:38;7.68;;;3.60;;
55031;SDS011;40928;51.076;7.950;2023-08-20T01:38:13;7.47;;;3.10;;
55031;SDS011;40928;51.076;7.950;2023-08-20T01:40:39;6.65;;;3.35;;
55031;SDS011;40928;51.076;7.950;2023-08-20T01:43:04;4.90;;;2.92;;
55031;SDS011;40928;51.076;7.950;2023-08-20T01:45:30;6.32;;;3.00;;
55031;SDS011;40928;51.076;7.950;2023-08-20T01:47:55;6.13;;;3.03;;
55031;SDS011;40928;51.076;7.950;2023-08-20T01:50:21;8.75;;;3.40;;
55031;SDS011;40928;51.076;7.950;2023-08-20T01:52:46;7.55;;;3.63;;
55031;SDS011;40928;51.076;7.950;2023-08-20T01:55:11;8.35;;;3.20;;
55031;SDS011;40928;51.076;7.950;2023-08-20T01:57:37;6.45;;;3.33;;
55031;SDS011;40928;51.076;7.950;2023-08-20T02:00:03;6.60;;;3.10;;
55031;SDS011;40928;51.076;7.950;2023-08-20T02:02:39;10.02;;;3.65;;
55031;SDS011;40928;51.076;7.950;2023-08-20T02:05:04;4.38;;;3.13;;
55031;SDS011;40928;51.076;7.950;2023-08-20T02:07:30;10.10;;;3.78;;
55031;SDS011;40928;51.076;7.950;2023-08-20T02:09:58;4.85;;;3.10;;
55031;SDS011;40928;51.076;7.950;2023-08-20T02:12:25;7.90;;;3.20;;
55031;SDS011;40928;51.076;7.950;2023-08-20T02:14:51;6.20;;;3.17;;
55031;SDS011;40928;51.076;7.950;2023-08-20T02:17:20;21.13;;;3.97;;
55031;SDS011;40928;51.076;7.950;2023-08-20T02:19:47;5.93;;;3.47;;
55031;SDS011;40928;51.076;7.950;2023-08-20T02:22:12;5.78;;;3.25;;
55031;SDS011;40928;51.076;7.950;2023-08-20T02:24:38;5.90;;;3.47;;
55031;SDS011;40928;51.076;7.950;2023-08-20T02:27:04;4.30;;;3.47;;
55031;SDS011;40928;51.076;7.950;2023-08-20T02:29:29;9.43;;;3.95;;
55031;SDS011;40928;51.076;7.950;2023-08-20T02:31:54;5.60;;;3.42;;
55031;SDS011;40928;51.076;7.950;2023-08-20T02:34:20;5.65;;;4.00;;
55031;SDS011;40928;51.076;7.950;2023-08-20T02:36:46;8.30;;;3.80;;
55031;SDS011;40928;51.076;7.950;2023-08-20T02:39:13;4.10;;;2.83;;
55031;SDS011;40928;51.076;7.950;2023-08-20T02:41:40;5.50;;;3.40;;
55031;SDS011;40928;51.076;7.950;2023-08-20T02:44:08;6.07;;;3.72;;
55031;SDS011;40928;51.076;7.950;2023-08-20T02:46:33;5.00;;;2.92;;
55031;SDS011;40928;51.076;7.950;2023-08-20T02:48:59;4.40;;;3.35;;
55031;SDS011;40928;51.076;7.950;2023-08-20T02:51:26;7.28;;;3.45;;
55031;SDS011;40928;51.076;7.950;2023-08-20T02:53:52;8.95;;;3.72;;
55031;SDS011;40928;51.076;7.950;2023-08-20T02:56:17;5.25;;;3.53;;
55031;SDS011;40928;51.076;7.950;2023-08-20T02:58:43;5.13;;;3.28;;
55031;SDS011;40928;51.076;7.950;2023-08-20T03:01:19;8.13;;;3.40;;
55031;SDS011;40928;51.076;7.950;2023-08-20T03:03:46;4.78;;;3.53;;
55031;SDS011;40928;51.076;7.950;2023-08-20T03:06:12;8.43;;;4.32;;
55031;SDS011;40928;51.076;7.950;2023-08-20T03:08:38;6.90;;;3.33;;
55031;SDS011;40928;51.076;7.950;2023-08-20T03:11:04;4.70;;;3.55;;
55031;SDS011;40928;51.076;7.950;2023-08-20T03:13:29;7.05;;;3.85;;
55031;SDS011;40928;51.076;7.950;2023-08-20T03:15:55;5.78;;;3.28;;
55031;SDS011;40928;51.076;7.950;2023-08-20T03:18:20;7.85;;;3.75;;
55031;SDS011;40928;51.076;7.950;2023-08-20T03:20:46;8.30;;;3.85;;
55031;SDS011;40928;51.076;7.950;2023-08-20T03:23:11;4.80;;;3.55;;
55031;SDS011;40928;51.076;7.950;2023-08-20T03:25:38;6.90;;;3.33;;
55031;SDS011;40928;51.076;7.950;2023-08-20T03:28:03;7.55;;;3.30;;
55031;SDS011;40928;51.076;7.950;2023-08-20T03:30:30;8.98;;;4.00;;
55031;SDS011;40928;51.076;7.950;2023-08-20T03:32:56;16.95;;;6.15;;
55031;SDS011;40928;51.076;7.950;2023-08-20T03:35:23;7.15;;;3.97;;
55031;SDS011;40928;51.076;7.950;2023-08-20T03:37:48;10.35;;;3.88;;
55031;SDS011;40928;51.076;7.950;2023-08-20T03:40:14;5.80;;;4.05;;
55031;SDS011;40928;51.076;7.950;2023-08-20T03:42:41;7.95;;;3.90;;
55031;SDS011;40928;51.076;7.950;2023-08-20T03:45:08;6.78;;;3.83;;
55031;SDS011;40928;51.076;7.950;2023-08-20T03:47:34;6.35;;;3.50;;
55031;SDS011;40928;51.076;7.950;2023-08-20T03:50:00;8.55;;;3.72;;
55031;SDS011;40928;51.076;7.950;2023-08-20T03:52:26;9.50;;;4.13;;
55031;SDS011;40928;51.076;7.950;2023-08-20T03:54:52;5.18;;;3.65;;
55031;SDS011;40928;51.076;7.950;2023-08-20T03:57:17;12.68;;;3.72;;
55031;SDS011;40928;51.076;7.950;2023-08-20T03:59:43;11.50;;;4.05;;
55031;SDS011;40928;51.076;7.950;2023-08-20T04:02:12;9.82;;;3.88;;
55031;SDS011;40928;51.076;7.950;2023-08-20T04:04:38;7.53;;;3.85;;
55031;SDS011;40928;51.076;7.950;2023-08-20T04:07:04;13.05;;;4.35;;
55031;SDS011;40928;51.076;7.950;2023-08-20T04:09:32;7.43;;;4.22;;
55031;SDS011;40928;51.076;7.950;2023-08-20T04:11:58;8.02;;;3.60;;
55031;SDS011;40928;51.076;7.950;2023-08-20T04:14:23;7.82;;;4.13;;
55031;SDS011;40928;51.076;7.950;2023-08-20T04:16:48;7.05;;;3.92;;
55031;SDS011;40928;51.076;7.950;2023-08-20T04:19:14;5.93;;;3.67;;
55031;SDS011;40928;51.076;7.950;2023-08-20T04:21:40;10.27;;;3.85;;
55031;SDS011;40928;51.076;7.950;2023-08-20T04:24:06;5.25;;;3.28;;
55031;SDS011;40928;51.076;7.950;2023-08-20T04:26:32;7.03;;;4.82;;
55031;SDS011;40928;51.076;7.950;2023-08-20T04:28:58;11.20;;;4.75;;
55031;SDS011;40928;51.076;7.950;2023-08-20T04:31:23;8.27;;;4.20;;
55031;SDS011;40928;51.076;7.950;2023-08-20T04:33:58;6.60;;;2.95;;
55031;SDS011;40928;51.076;7.950;2023-08-20T04:36:35;7.20;;;4.18;;
55031;SDS011;40928;51.076;7.950;2023-08-20T04:39:01;8.88;;;4.43;;
55031;SDS011;40928;51.076;7.950;2023-08-20T04:41:27;7.78;;;4.43;;
55031;SDS011;40928;51.076;7.950;2023-08-20T04:43:53;4.97;;;3.53;;
55031;SDS011;40928;51.076;7.950;2023-08-20T04:46:21;14.32;;;4.18;;
55031;SDS011;40928;51.076;7.950;2023-08-20T04:48:46;7.40;;;4.00;;
55031;SDS011;40928;51.076;7.950;2023-08-20T04:51:12;5.43;;;3.42;;
55031;SDS011;40928;51.076;7.950;2023-08-20T04:53:37;6.13;;;4.00;;
55031;SDS011;40928;51.076;7.950;2023-08-20T04:56:03;5.65;;;4.03;;
55031;SDS011;40928;51.076;7.950;2023-08-20T04:58:29;6.80;;;3.78;;
55031;SDS011;40928;51.076;7.950;2023-08-20T05:00:54;7.63;;;4.10;;
55031;SDS011;40928;51.076;7.950;2023-08-20T05:03:22;6.70;;;4.30;;
55031;SDS011;40928;51.076;7.950;2023-08-20T05:05:49;6.38;;;4.07;;
55031;SDS011;40928;51.076;7.950;2023-08-20T05:08:18;6.53;;;3.95;;
55031;SDS011;40928;51.076;7.950;2023-08-20T05:10:43;6.05;;;3.83;;
55031;SDS011;40928;51.076;7.950;2023-08-20T05:13:11;6.28;;;3.63;;
55031;SDS011;40928;51.076;7.950;2023-08-20T05:15:36;6.20;;;3.60;;
55031;SDS011;40928;51.076;7.950;2023-08-20T05:18:02;7.20;;;4.07;;
55031;SDS011;40928;51.076;7.950;2023-08-20T05:20:28;10.05;;;4.53;;
55031;SDS011;40928;51.076;7.950;2023-08-20T05:22:53;9.55;;;4.10;;
55031;SDS011;40928;51.076;7.950;2023-08-20T05:25:19;7.10;;;4.53;;
55031;SDS011;40928;51.076;7.950;2023-08-20T05:27:46;4.55;;;3.38;;
55031;SDS011;40928;51.076;7.950;2023-08-20T05:30:11;6.07;;;4.05;;
55031;SDS011;40928;51.076;7.950;2023-08-20T05:32:37;6.70;;;4.10;;
55031;SDS011;40928;51.076;7.950;2023-08-20T05:35:03;7.90;;;4.32;;
55031;SDS011;40928;51.076;7.950;2023-08-20T05:37:29;5.95;;;4.25;;
55031;SDS011;40928;51.076;7.950;2023-08-20T05:39:55;5.63;;;3.92;;
55031;SDS011;40928;51.076;7.950;2023-08-20T05:42:21;7.15;;;4.00;;
55031;SDS011;40928;51.076;7.950;2023-08-20T05:44:52;6.38;;;3.60;;
55031;SDS011;40928;51.076;7.950;2023-08-20T05:47:23;5.95;;;4.97;;
55031;SDS011;40928;51.076;7.950;2023-08-20T05:49:48;7.20;;;4.38;;
55031;SDS011;40928;51.076;7.950;2023-08-20T05:52:14;8.23;;;4.32;;
55031;SDS011;40928;51.076;7.950;2023-08-20T05:54:42;7.97;;;4.18;;
55031;SDS011;40928;51.076;7.950;2023-08-20T05:57:07;5.07;;;3.63;;
55031;SDS011;40928;51.076;7.950;2023-08-20T05:59:32;12.88;;;5.13;;
55031;SDS011;40928;51.076;7.950;2023-08-20T06:02:00;4.95;;;3.70;;
55031;SDS011;40928;51.076;7.950;2023-08-20T06:04:27;4.65;;;4.00;;
55031;SDS011;40928;51.076;7.950;2023-08-20T06:06:53;5.85;;;3.72;;
55031;SDS011;40928;51.076;7.950;2023-08-20T06:09:18;5.93;;;4.07;;
55031;SDS011;40928;51.076;7.950;2023-08-20T06:11:44;9.50;;;4.90;;
55031;SDS011;40928;51.076;7.950;2023-08-20T06:14:10;5.85;;;3.83;;
55031;SDS011;40928;51.076;7.950;2023-08-20T06:16:35;7.35;;;5.38;;
55031;SDS011;40928;51.076;7.950;2023-08-20T06:19:01;7.85;;;4.50;;
55031;SDS011;40928;51.076;7.950;2023-08-20T06:21:27;7.78;;;4.65;;
55031;SDS011;40928;51.076;7.950;2023-08-20T06:23:53;7.82;;;4.22;;
55031;SDS011;40928;51.076;7.950;2023-08-20T06:26:18;6.70;;;4.63;;
55031;SDS011;40928;51.076;7.950;2023-08-20T06:28:45;6.35;;;4.72;;
55031;SDS011;40928;51.076;7.950;2023-08-20T06:31:11;6.45;;;4.80;;
55031;SDS011;40928;51.076;7.950;2023-08-20T06:33:37;6.22;;;4.60;;
55031;SDS011;40928;51.076;7.950;2023-08-20T06:36:04;8.18;;;5.57;;
55031;SDS011;40928;51.076;7.950;2023-08-20T06:38:29;7.40;;;4.70;;
55031;SDS011;40928;51.076;7.950;2023-08-20T06:40:55;5.88;;;4.70;;
55031;SDS011;40928;51.076;7.950;2023-08-20T06:43:21;7.55;;;5.70;;
55031;SDS011;40928;51.076;7.950;2023-08-20T06:45:47;10.88;;;5.97;;
55031;SDS011;40928;51.076;7.950;2023-08-20T06:48:12;7.95;;;5.10;;
55031;SDS011;40928;51.076;7.950;2023-08-20T06:50:38;8.77;;;5.57;;
55031;SDS011;40928;51.076;7.950;2023-08-20T06:53:03;8.75;;;4.97;;
55031;SDS011;40928;51.076;7.950;2023-08-20T06:55:30;11.18;;;5.78;;
55031;SDS011;40928;51.076;7.950;2023-08-20T06:57:56;6.63;;;4.95;;
55031;SDS011;40928;51.076;7.950;2023-08-20T07:00:22;6.65;;;5.20;;
55031;SDS011;40928;51.076;7.950;2023-08-20T07:02:48;7.75;;;5.57;;
55031;SDS011;40928;51.076;7.950;2023-08-20T07:05:13;10.77;;;5.53;;
55031;SDS011;40928;51.076;7.950;2023-08-20T07:07:40;8.55;;;5.38;;
55031;SDS011;40928;51.076;7.950;2023-08-20T07:10:05;9.02;;;4.60;;
55031;SDS011;40928;51.076;7.950;2023-08-20T07:12:31;8.23;;;4.95;;
55031;SDS011;40928;51.076;7.950;2023-08-20T07:14:57;7.80;;;4.50;;
55031;SDS011;40928;51.076;7.950;2023-08-20T07:17:22;7.30;;;4.68;;
55031;SDS011;40928;51.076;7.950;2023-08-20T07:19:48;8.65;;;4.47;;
55031;SDS011;40928;51.076;7.950;2023-08-20T07:22:13;7.72;;;4.28;;
55031;SDS011;40928;51.076;7.950;2023-08-20T07:24:39;5.10;;;4.03;;
55031;SDS011;40928;51.076;7.950;2023-08-20T07:27:04;7.57;;;4.35;;
55031;SDS011;40928;51.076;7.950;2023-08-20T07:29:36;6.53;;;4.75;;
55031;SDS011;40928;51.076;7.950;2023-08-20T07:32:02;5.65;;;4.22;;
55031;SDS011;40928;51.076;7.950;2023-08-20T07:34:28;7.65;;;5.05;;
55031;SDS011;40928;51.076;7.950;2023-08-20T07:36:56;6.57;;;4.45;;
55031;SDS011;40928;51.076;7.950;2023-08-20T07:39:22;6.03;;;4.20;;
55031;SDS011;40928;51.076;7.950;2023-08-20T07:41:47;6.38;;;4.32;;
55031;SDS011;40928;51.076;7.950;2023-08-20T07:44:13;5.88;;;3.90;;
55031;SDS011;40928;51.076;7.950;2023-08-20T07:46:38;5.47;;;3.85;;
55031;SDS011;40928;51.076;7.950;2023-08-20T07:49:04;4.95;;;3.78;;
55031;SDS011;40928;51.076;7.950;2023-08-20T07:51:30;5.28;;;3.92;;
55031;SDS011;40928;51.076;7.950;2023-08-20T07:53:55;5.60;;;3.78;;
55031;SDS011;40928;51.076;7.950;2023-08-20T07:56:23;5.28;;;3.88;;
55031;SDS011;40928;51.076;7.950;2023-08-20T07:58:48;7.22;;;3.20;;
55031;SDS011;40928;51.076;7.950;2023-08-20T08:01:14;5.28;;;3.45;;
55031;SDS011;40928;51.076;7.950;2023-08-20T08:03:40;5.53;;;3.38;;
55031;SDS011;40928;51.076;7.950;2023-08-20T08:06:05;5.43;;;3.88;;
55031;SDS011;40928;51.076;7.950;2023-08-20T08:08:31;5.45;;;3.55;;
55031;SDS011;40928;51.076;7.950;2023-08-20T08:10:56;3.85;;;2.80;;
55031;SDS011;40928;51.076;7.950;2023-08-20T08:13:22;4.57;;;2.97;;
55031;SDS011;40928;51.076;7.950;2023-08-20T08:15:48;4.70;;;3.10;;
55031;SDS011;40928;51.076;7.950;2023-08-20T08:18:15;5.00;;;3.63;;
55031;SDS011;40928;51.076;7.950;2023-08-20T08:20:40;4.57;;;3.08;;
55031;SDS011;40928;51.076;7.950;2023-08-20T08:23:06;4.50;;;3.45;;
55031;SDS011;40928;51.076;7.950;2023-08-20T08:25:32;5.00;;;3.30;;
55031;SDS011;40928;51.076;7.950;2023-08-20T08:27:57;3.90;;;3.15;;
55031;SDS011;40928;51.076;7.950;2023-08-20T08:30:23;5.90;;;2.97;;
55031;SDS011;40928;51.076;7.950;2023-08-20T08:32:49;4.82;;;2.83;;
55031;SDS011;40928;51.076;7.950;2023-08-20T08:35:14;8.02;;;4.10;;
55031;SDS011;40928;51.076;7.950;2023-08-20T08:37:40;6.20;;;3.40;;
55031;SDS011;40928;51.076;7.950;2023-08-20T08:40:06;3.15;;;2.72;;
55031;SDS011;40928;51.076;7.950;2023-08-20T08:42:32;4.05;;;2.90;;
55031;SDS011;40928;51.076;7.950;2023-08-20T08:45:02;5.15;;;3.35;;
55031;SDS011;40928;51.076;7.950;2023-08-20T08:47:29;3.28;;;2.95;;
55031;SDS011;40928;51.076;7.950;2023-08-20T08:49:54;4.20;;;3.22;;
55031;SDS011;40928;51.076;7.950;2023-08-20T08:52:24;3.85;;;2.83;;
55031;SDS011;40928;51.076;7.950;2023-08-20T08:54:50;3.92;;;3.05;;
55031;SDS011;40928;51.076;7.950;2023-08-20T08:57:16;3.33;;;2.92;;
55031;SDS011;40928;51.076;7.950;2023-08-20T08:59:42;5.03;;;3.33;;
55031;SDS011;40928;51.076;7.950;2023-08-20T09:02:08;4.38;;;3.40;;
55031;SDS011;40928;51.076;7.950;2023-08-20T09:04:41;4.28;;;2.70;;
55031;SDS011;40928;51.076;7.950;2023-08-20T09:07:14;9.02;;;3.30;;
55031;SDS011;40928;51.076;7.950;2023-08-20T09:09:46;3.78;;;2.80;;
55031;SDS011;40928;51.076;7.950;2023-08-20T09:12:16;5.80;;;2.83;;
55031;SDS011;40928;51.076;7.950;2023-08-20T09:14:49;4.15;;;2.67;;
55031;SDS011;40928;51.076;7.950;2023-08-20T09:17:17;3.75;;;2.70;;
55031;SDS011;40928;51.076;7.950;2023-08-20T09:19:44;5.25;;;3.25;;
55031;SDS011;40928;51.076;7.950;2023-08-20T09:22:11;5.30;;;2.90;;
55031;SDS011;40928;51.076;7.950;2023-08-20T09:27:11;5.65;;;3.13;;
55031;SDS011;40928;51.076;7.950;2023-08-20T09:29:47;5.78;;;3.65;;
55031;SDS011;40928;51.076;7.950;2023-08-20T09:35:24;14.98;;;8.23;;
55031;SDS011;40928;51.076;7.950;2023-08-20T09:37:59;7.32;;;5.45;;
55031;SDS011;40928;51.076;7.950;2023-08-20T09:43:01;4.97;;;3.67;;
55031;SDS011;40928;51.076;7.950;2023-08-20T09:45:28;5.47;;;3.60;;
55031;SDS011;40928;51.076;7.950;2023-08-20T09:47:55;5.07;;;4.30;;
55031;SDS011;40928;51.076;7.950;2023-08-20T09:50:24;6.05;;;3.58;;
55031;SDS011;40928;51.076;7.950;2023-08-20T09:52:58;5.25;;;3.83;;
55031;SDS011;40928;51.076;7.950;2023-08-20T09:55:32;4.45;;;3.47;;
55031;SDS011;40928;51.076;7.950;2023-08-20T09:58:01;9.00;;;3.97;;
55031;SDS011;40928;51.076;7.950;2023-08-20T10:00:27;5.53;;;3.83;;
55031;SDS011;40928;51.076;7.950;2023-08-20T10:02:53;3.67;;;3.00;;
55031;SDS011;40928;51.076;7.950;2023-08-20T10:05:21;5.20;;;3.50;;
55031;SDS011;40928;51.076;7.950;2023-08-20T10:07:49;4.80;;;3.10;;
55031;SDS011;40928;51.076;7.950;2023-08-20T10:15:53;10.13;;;6.63;;
55031;SDS011;40928;51.076;7.950;2023-08-20T10:21:36;3.67;;;3.28;;
55031;SDS011;40928;51.076;7.950;2023-08-20T10:24:08;6.35;;;3.00;;
55031;SDS011;40928;51.076;7.950;2023-08-20T10:26:34;4.88;;;2.85;;
55031;SDS011;40928;51.076;7.950;2023-08-20T10:32:51;4.15;;;2.58;;
55031;SDS011;40928;51.076;7.950;2023-08-20T10:35:17;6.38;;;4.78;;
55031;SDS011;40928;51.076;7.950;2023-08-20T10:43:30;9.48;;;3.40;;
55031;SDS011;40928;51.076;7.950;2023-08-20T10:46:05;4.07;;;3.13;;
55031;SDS011;40928;51.076;7.950;2023-08-20T10:48:32;4.63;;;3.60;;
55031;SDS011;40928;51.076;7.950;2023-08-20T10:51:09;4.50;;;3.13;;
55031;SDS011;40928;51.076;7.950;2023-08-20T10:57:36;6.30;;;3.00;;
55031;SDS011;40928;51.076;7.950;2023-08-20T11:00:07;5.07;;;3.22;;
55031;SDS011;40928;51.076;7.950;2023-08-20T11:02:52;7.80;;;3.08;;
55031;SDS011;40928;51.076;7.950;2023-08-20T11:05:19;2.92;;;2.50;;
55031;SDS011;40928;51.076;7.950;2023-08-20T11:07:47;5.20;;;3.00;;
55031;SDS011;40928;51.076;7.950;2023-08-20T11:10:14;3.30;;;2.72;;
55031;SDS011;40928;51.076;7.950;2023-08-20T11:12:45;3.90;;;2.70;;
55031;SDS011;40928;51.076;7.950;2023-08-20T11:15:12;3.33;;;2.42;;
55031;SDS011;40928;51.076;7.950;2023-08-20T11:17:47;5.00;;;2.75;;
55031;SDS011;40928;51.076;7.950;2023-08-20T11:20:16;3.95;;;2.30;;
55031;SDS011;40928;51.076;7.950;2023-08-20T11:22:41;2.83;;;2.17;;
55031;SDS011;40928;51.076;7.950;2023-08-20T11:25:10;3.90;;;2.20;;
55031;SDS011;40928;51.076;7.950;2023-08-20T11:27:41;3.20;;;2.15;;
55031;SDS011;40928;51.076;7.950;2023-08-20T11:30:09;2.97;;;2.20;;
55031;SDS011;40928;51.076;7.950;2023-08-20T11:32:37;2.35;;;2.10;;
55031;SDS011;40928;51.076;7.950;2023-08-20T11:35:03;5.28;;;2.20;;
55031;SDS011;40928;51.076;7.950;2023-08-20T11:37:30;4.57;;;2.10;;
55031;SDS011;40928;51.076;7.950;2023-08-20T11:39:55;4.57;;;2.80;;
55031;SDS011;40928;51.076;7.950;2023-08-20T11:42:21;3.58;;;2.65;;
55031;SDS011;40928;51.076;7.950;2023-08-20T11:44:47;4.05;;;2.80;;
55031;SDS011;40928;51.076;7.950;2023-08-20T11:47:17;3.20;;;2.63;;
55031;SDS011;40928;51.076;7.950;2023-08-20T11:49:44;3.15;;;2.40;;
55031;SDS011;40928;51.076;7.950;2023-08-20T11:52:10;5.13;;;2.60;;
55031;SDS011;40928;51.076;7.950;2023-08-20T11:54:37;5.35;;;2.90;;
55031;SDS011;40928;51.076;7.950;2023-08-20T11:57:04;3.40;;;2.67;;
55031;SDS011;40928;51.076;7.950;2023-08-20T11:59:30;4.50;;;2.60;;
55031;SDS011;40928;51.076;7.950;2023-08-20T12:01:57;3.22;;;2.30;;
55031;SDS011;40928;51.076;7.950;2023-08-20T12:04:24;4.72;;;2.88;;
55031;SDS011;40928;51.076;7.950;2023-08-20T12:07:10;3.17;;;2.50;;
55031;SDS011;40928;51.076;7.950;2023-08-20T12:09:39;5.07;;;2.42;;
55031;SDS011;40928;51.076;7.950;2023-08-20T12:12:06;2.92;;;2.08;;
55031;SDS011;40928;51.076;7.950;2023-08-20T12:14:32;4.93;;;2.85;;
55031;SDS011;40928;51.076;7.950;2023-08-20T12:16:59;3.03;;;2.35;;
55031;SDS011;40928;51.076;7.950;2023-08-20T12:19:24;4.32;;;2.00;;
55031;SDS011;40928;51.076;7.950;2023-08-20T12:21:50;6.90;;;3.13;;
55031;SDS011;40928;51.076;7.950;2023-08-20T12:24:16;4.78;;;2.53;;
55031;SDS011;40928;51.076;7.950;2023-08-20T12:26:44;2.80;;;2.45;;
55031;SDS011;40928;51.076;7.950;2023-08-20T12:29:10;2.70;;;2.50;;
55031;SDS011;40928;51.076;7.950;2023-08-20T12:31:35;7.15;;;2.50;;
55031;SDS011;40928;51.076;7.950;2023-08-20T12:34:01;4.38;;;2.42;;
55031;SDS011;40928;51.076;7.950;2023-08-20T12:36:30;4.88;;;2.60;;
55031;SDS011;40928;51.076;7.950;2023-08-20T12:39:02;3.08;;;2.78;;
55031;SDS011;40928;51.076;7.950;2023-08-20T12:41:32;5.60;;;2.72;;
55031;SDS011;40928;51.076;7.950;2023-08-20T12:43:57;5.65;;;3.20;;
55031;SDS011;40928;51.076;7.950;2023-08-20T12:46:23;7.47;;;2.90;;
55031;SDS011;40928;51.076;7.950;2023-08-20T12:48:49;3.95;;;2.78;;
55031;SDS011;40928;51.076;7.950;2023-08-20T12:51:16;2.72;;;2.22;;
55031;SDS011;40928;51.076;7.950;2023-08-20T12:53:42;3.78;;;2.50;;
55031;SDS011;40928;51.076;7.950;2023-08-20T12:56:08;4.25;;;2.55;;
55031;SDS011;40928;51.076;7.950;2023-08-20T12:58:34;4.55;;;3.10;;
55031;SDS011;40928;51.076;7.950;2023-08-20T13:00:59;4.57;;;3.15;;
55031;SDS011;40928;51.076;7.950;2023-08-20T13:03:25;3.72;;;2.80;;
55031;SDS011;40928;51.076;7.950;2023-08-20T13:05:52;3.47;;;2.85;;
55031;SDS011;40928;51.076;7.950;2023-08-20T13:08:18;8.07;;;3.53;;
55031;SDS011;40928;51.076;7.950;2023-08-20T13:10:46;4.15;;;3.00;;
55031;SDS011;40928;51.076;7.950;2023-08-20T13:13:23;7.95;;;3.22;;
55031;SDS011;40928;51.076;7.950;2023-08-20T13:15:53;4.57;;;2.85;;
55031;SDS011;40928;51.076;7.950;2023-08-20T13:18:19;3.60;;;2.97;;
55031;SDS011;40928;51.076;7.950;2023-08-20T13:20:50;7.97;;;3.38;;
55031;SDS011;40928;51.076;7.950;2023-08-20T13:23:16;4.80;;;2.88;;
55031;SDS011;40928;51.076;7.950;2023-08-20T13:25:42;5.75;;;3.55;;
55031;SDS011;40928;51.076;7.950;2023-08-20T13:28:08;7.47;;;3.75;;
55031;SDS011;40928;51.076;7.950;2023-08-20T13:30:34;5.10;;;3.10;;
55031;SDS011;40928;51.076;7.950;2023-08-20T13:33:00;3.42;;;2.88;;
55031;SDS011;40928;51.076;7.950;2023-08-20T13:35:26;3.45;;;2.95;;
55031;SDS011;40928;51.076;7.950;2023-08-20T13:37:51;3.30;;;3.00;;
55031;SDS011;40928;51.076;7.950;2023-08-20T13:40:18;7.97;;;3.50;;
55031;SDS011;40928;51.076;7.950;2023-08-20T13:42:43;5.13;;;3.00;;
55031;SDS011;40928;51.076;7.950;2023-08-20T13:45:09;5.07;;;3.60;;
55031;SDS011;40928;51.076;7.950;2023-08-20T13:47:34;4.05;;;3.63;;
55031;SDS011;40928;51.076;7.950;2023-08-20T13:50:00;4.53;;;3.40;;
55031;SDS011;40928;51.076;7.950;2023-08-20T13:52:25;5.95;;;3.60;;
55031;SDS011;40928;51.076;7.950;2023-08-20T13:54:51;4.25;;;3.42;;
55031;SDS011;40928;51.076;7.950;2023-08-20T13:57:17;4.55;;;3.25;;
55031;SDS011;40928;51.076;7.950;2023-08-20T13:59:42;5.88;;;3.85;;
55031;SDS011;40928;51.076;7.950;2023-08-20T14:02:08;4.57;;;3.33;;
55031;SDS011;40928;51.076;7.950;2023-08-20T14:04:33;6.80;;;3.75;;
55031;SDS011;40928;51.076;7.950;2023-08-20T14:06:59;8.38;;;3.92;;
55031;SDS011;40928;51.076;7.950;2023-08-20T14:09:24;5.80;;;4.18;;
55031;SDS011;40928;51.076;7.950;2023-08-20T14:11:50;5.55;;;4.00;;
55031;SDS011;40928;51.076;7.950;2023-08-20T14:14:15;5.28;;;3.83;;
55031;SDS011;40928;51.076;7.950;2023-08-20T14:16:41;5.32;;;3.83;;
55031;SDS011;40928;51.076;7.950;2023-08-20T14:19:07;5.63;;;3.78;;
55031;SDS011;40928;51.076;7.950;2023-08-20T14:21:32;6.35;;;4.30;;
55031;SDS011;40928;51.076;7.950;2023-08-20T14:23:58;7.13;;;3.78;;
55031;SDS011;40928;51.076;7.950;2023-08-20T14:26:23;6.28;;;3.92;;
55031;SDS011;40928;51.076;7.950;2023-08-20T14:28:49;5.32;;;3.85;;
55031;SDS011;40928;51.076;7.950;2023-08-20T14:31:15;6.22;;;4.40;;
55031;SDS011;40928;51.076;7.950;2023-08-20T14:33:40;4.72;;;3.97;;
55031;SDS011;40928;51.076;7.950;2023-08-20T14:36:06;9.32;;;4.18;;
55031;SDS011;40928;51.076;7.950;2023-08-20T14:38:32;4.75;;;3.90;;
55031;SDS011;40928;51.076;7.950;2023-08-20T14:41:01;6.88;;;3.90;;
55031;SDS011;40928;51.076;7.950;2023-08-20T14:43:27;4.72;;;3.90;;
55031;SDS011;40928;51.076;7.950;2023-08-20T14:45:54;7.13;;;4.45;;
55031;SDS011;40928;51.076;7.950;2023-08-20T14:48:20;7.65;;;4.50;;
55031;SDS011;40928;51.076;7.950;2023-08-20T14:50:47;6.43;;;4.10;;
55031;SDS011;40928;51.076;7.950;2023-08-20T14:53:13;6.05;;;4.47;;
55031;SDS011;40928;51.076;7.950;2023-08-20T14:55:39;4.45;;;3.80;;
55031;SDS011;40928;51.076;7.950;2023-08-20T14:58:04;4.40;;;3.80;;
55031;SDS011;40928;51.076;7.950;2023-08-20T15:00:33;6.13;;;3.75;;
55031;SDS011;40928;51.076;7.950;2023-08-20T15:02:59;6.13;;;4.32;;
55031;SDS011;40928;51.076;7.950;2023-08-20T15:05:26;4.75;;;4.10;;
55031;SDS011;40928;51.076;7.950;2023-08-20T15:07:52;4.38;;;3.72;;
55031;SDS011;40928;51.076;7.950;2023-08-20T15:10:18;4.57;;;3.90;;
55031;SDS011;40928;51.076;7.950;2023-08-20T15:12:43;5.80;;;3.97;;
55031;SDS011;40928;51.076;7.950;2023-08-20T15:15:09;5.18;;;3.88;;
55031;SDS011;40928;51.076;7.950;2023-08-20T15:17:35;5.85;;;3.75;;
55031;SDS011;40928;51.076;7.950;2023-08-20T15:20:01;4.05;;;3.42;;
55031;SDS011;40928;51.076;7.950;2023-08-20T15:22:33;6.45;;;3.42;;
55031;SDS011;40928;51.076;7.950;2023-08-20T15:24:58;4.18;;;3.70;;
55031;SDS011;40928;51.076;7.950;2023-08-20T15:27:24;6.45;;;3.95;;